Latest Weather Observations for Mount Gellibrand

IDV60801

Issued at 2:05 pm EST Tuesday 2 September 2014 (issued every 30 minutes, with the page automatically refreshed every 10 minutes)

About weather observations | Map of weather stations | Latest weather observations for VIC | Other Formats
Station Details ID: 090035 Name: MOUNT GELLIBRAND Lat: -38.23 Lon: 143.79 Height: 261.0 m
Data from the previous 72 hours. | See also: Recent months at Mount Gellibrand
Date/Time
EST
Temp
°C
App
Temp
°C
Dew
Point
Rel
Hum
%
Delta-T
°C
Wind Press
QNH
hPa
Press
MSL
hPa
Rain
since 9 am
mm
Dir
 
Spd
km/h
Gust
km/h
Spd
kts
Gust
kts
02/02:00pm 11.1 5.4 6.6 74 2.1 SSW 26 32 14 17 1019.9 1020.0 0.0
02/01:30pm 9.8 2.1 5.4 74 2.0 S 35 44 19 24 1019.6 1019.8 0.0
02/01:00pm 10.4 2.1 6.0 74 2.1 S 39 48 21 26 1019.7 1019.9 0.0
02/12:30pm 10.6 2.6 5.8 72 2.2 S 37 46 20 25 1019.7 1019.9 0.0
02/12:00pm 10.4 2.8 6.0 74 2.1 SSW 35 46 19 25 1019.6 1019.8 0.0
02/11:30am 9.4 1.8 5.9 79 1.6 SSW 35 46 19 25 1019.9 1020.0 0.0
02/11:00am 10.3 3.5 7.0 80 1.6 SSW 32 39 17 21 1019.7 1019.9 0.0
02/10:30am 10.2 4.6 7.1 81 1.5 SSW 26 35 14 19 1019.7 1019.9 0.0
02/10:00am 9.2 3.4 6.3 82 1.4 SSW 26 32 14 17 1019.5 1019.7 0.0
02/09:30am 8.3 1.5 5.2 81 1.4 S 30 37 16 20 1019.2 1019.4 0.0
02/09:00am 7.9 2.8 6.2 89 0.8 SW 22 26 12 14 1019.2 1019.4 2.6
02/08:30am 7.7 2.9 5.8 88 0.9 SW 20 28 11 15 1018.8 1019.0 2.6
02/08:00am 6.7 1.5 5.7 93 0.5 WSW 22 30 12 16 1018.1 1018.3 2.6
02/07:30am 6.9 1.6 5.2 89 0.8 SSW 22 30 12 16 1017.5 1017.7 2.4
02/07:00am 6.4 -1.0 5.2 92 0.5 SSW 33 37 18 20 1017.2 1017.4 2.4
02/06:30am 6.2 -1.0 4.8 91 0.6 SSW 32 37 17 20 1016.8 1017.0 2.2
02/06:00am 6.0 -0.3 4.0 87 0.9 SW 26 32 14 17 1016.3 1016.4 2.0
02/05:30am 6.3 0.5 4.6 89 0.7 SW 24 26 13 14 1015.7 1015.9 2.0
02/05:00am 6.1 -0.3 5.4 95 0.3 SSW 28 30 15 16 1015.3 1015.5 2.0
02/04:30am 5.9 1.3 5.5 97 0.2 SW 19 22 10 12 1015.1 1015.3 2.0
02/04:00am 6.1 1.5 5.5 96 0.3 SW 19 22 10 12 1014.7 1014.9 2.0
02/03:30am 6.1 1.5 5.4 95 0.3 SW 19 24 10 13 1014.5 1014.7 2.0
02/03:00am 6.8 1.8 6.4 97 0.2 SW 22 26 12 14 1014.2 1014.4 2.0
02/02:30am 6.6 2.1 6.3 98 0.1 WSW 19 22 10 12 1014.1 1014.3 2.0
02/02:00am 6.7 1.3 6.4 98 0.1 WSW 24 30 13 16 1014.0 1014.2 2.0
02/01:30am 6.8 3.1 6.4 97 0.2 W 15 19 8 10 1013.9 1014.1 2.0
02/01:00am 6.8 2.7 6.4 97 0.2 WSW 17 20 9 11 1013.7 1013.9 2.0
02/12:30am 6.8 1.8 6.4 97 0.2 WSW 22 26 12 14 1013.7 1013.9 2.0
02/12:00am 6.4 2.6 5.8 96 0.3 W 15 19 8 10 1013.5 1013.7 1.8
 
Date/Time
EST
Temp
°C
App
Temp
°C
Dew
Point
Rel
Hum
%
Delta-T
°C
Wind Press
QNH
hPa
Press
MSL
hPa
Rain
since 9 am
mm
Dir
 
Spd
km/h
Gust
km/h
Spd
kts
Gust
kts
01/11:30pm 7.0 2.9 6.3 95 0.3 W 17 22 9 12 1013.1 1013.2 1.8
01/11:00pm 7.0 2.8 5.9 93 0.5 W 17 20 9 11 1013.1 1013.2 1.8
01/10:30pm 8.0 3.4 6.6 91 0.7 WSW 20 24 11 13 1013.1 1013.2 1.8
01/10:00pm 7.4 3.6 5.9 90 0.7 W 15 20 8 11 1012.9 1013.0 1.6
01/09:30pm 7.3 3.6 6.1 92 0.6 W 15 19 8 10 1012.4 1012.5 1.6
01/09:00pm 7.7 2.9 5.8 88 0.9 WSW 20 22 11 12 1012.2 1012.3 1.6
01/08:30pm 7.7 2.2 5.7 87 0.9 WSW 24 26 13 14 1012.0 1012.1 1.6
01/08:00pm 8.1 3.6 6.2 88 0.9 SW 19 22 10 12 1011.5 1011.7 1.6
01/07:30pm 7.8 3.3 5.9 88 0.9 SW 19 24 10 13 1011.2 1011.4 1.6
01/07:00pm 8.9 3.6 6.7 86 1.0 SSW 24 30 13 16 1011.1 1011.3 1.4
01/06:30pm 8.8 5.2 6.9 88 0.9 WSW 15 19 8 10 1010.8 1011.0 1.4
01/06:00pm 9.2 5.3 7.2 87 1.0 SW 17 22 9 12 1010.6 1010.8 1.4
01/05:30pm 9.4 6.9 8.2 92 0.6 WSW 11 17 6 9 1010.2 1010.3 1.4
01/05:00pm 9.3 5.0 7.7 90 0.8 WSW 20 22 11 12 1009.8 1009.9 1.4
01/04:30pm 9.3 4.9 7.6 89 0.8 SW 20 24 11 13 1009.2 1009.3 1.4
01/04:00pm 9.3 3.4 7.3 87 1.0 SW 28 39 15 21 1008.9 1009.0 1.2
01/03:30pm 11.1 7.4 8.0 81 1.5 SW 17 20 9 11 1008.6 1008.7 0.8
01/03:00pm 10.9 6.5 7.6 80 1.6 SW 20 26 11 14 1008.3 1008.4 0.8
01/02:30pm 11.0 6.9 8.8 86 1.1 WSW 20 26 11 14 1008.3 1008.4 0.8
01/02:00pm 10.1 5.1 8.2 88 0.9 WSW 24 32 13 17 1008.1 1008.2 0.8
01/01:30pm 10.8 5.2 8.9 88 1.0 WSW 28 35 15 19 1008.1 1008.2 0.8
01/01:00pm 10.3 5.3 9.4 94 0.5 WSW 26 35 14 19 1008.3 1008.4 0.8
01/12:30pm 10.7 6.6 10.1 96 0.3 W 22 28 12 15 1008.3 1008.4 0.8
01/12:00pm 10.3 6.1 9.8 97 0.3 W 22 30 12 16 1008.1 1008.2 0.8
01/11:30am 10.3 6.1 9.8 97 0.3 W 22 35 12 19 1008.5 1008.6 0.8
01/11:00am 10.8 6.1 10.5 98 0.2 NW 26 32 14 17 1008.2 1008.3 0.2
01/10:30am 10.1 5.5 9.8 98 0.2 NW 24 30 13 16 1008.1 1008.2 0.0
01/10:00am 10.0 5.4 9.7 98 0.2 NNW 24 30 13 16 1008.5 1008.6 0.0
01/09:30am 9.6 5.3 9.3 98 0.2 NNW 22 28 12 15 1008.5 1008.8 0.0
01/09:00am 9.2 4.7 8.7 97 0.2 NW 22 30 12 16 1008.3 1008.5 3.8
01/08:30am 9.7 5.0 9.1 96 0.3 NNW 24 28 13 15 1008.1 1008.3 3.2
01/08:00am 9.9 3.6 9.1 95 0.4 NW 32 39 17 21 1007.7 1008.0 2.6
01/07:30am 9.9 3.0 8.8 93 0.5 NW 35 44 19 24 1007.9 1008.1 1.6
01/07:00am 10.2 3.7 8.3 88 0.9 WNW 32 37 17 20 1007.7 1008.0 0.8
01/06:30am 10.4 4.1 7.6 83 1.4 WNW 30 33 16 18 1007.4 1007.7 0.4
01/06:00am 10.4 5.4 6.5 77 1.9 NW 22 26 12 14 1007.7 1008.0 0.0
01/05:30am 11.3 5.8 6.0 70 2.5 WNW 24 28 13 15 1007.6 1007.9 0.0
01/05:00am 11.8 5.4 5.2 64 3.1 W 28 32 15 17 1007.4 1007.7 0.0
01/04:33am 12.7 5.3 4.9 59 3.6 WNW 33 39 18 21 1007.5 1007.8 0.0
01/04:30am 12.8 4.6 4.8 58 3.7 NW 37 48 20 26 1007.6 1007.9 0.0
01/04:29am 12.6 4.5 5.1 60 3.5 NNW 37 48 20 26 1007.7 1008.0 0.0
01/04:00am 12.8 5.1 5.5 61 3.5 WNW 35 43 19 23 1007.1 1007.4 0.0
01/03:37am 13.3 3.0 4.7 56 4.0 WNW 48 52 26 28 1007.2 1007.5 0.0
01/03:35am 13.4 3.8 4.6 55 4.1 NNW 44 52 24 28 1006.3 1006.6 0.0
01/03:30am 12.9 5.2 5.3 60 3.6 WNW 35 43 19 23 1007.3 1007.6 0.0
01/03:00am 13.5 4.9 4.9 56 4.1 N 39 46 21 25 1005.5 1005.8 0.0
01/02:30am 13.7 4.4 5.1 56 4.1 N 43 48 23 26 1006.0 1006.3 0.0
01/02:00am 14.0 5.5 5.1 55 4.2 N 39 48 21 26 1006.7 1007.0 0.0
01/01:30am 14.1 5.3 5.5 56 4.1 N 41 46 22 25 1007.3 1007.6 0.0
01/01:00am 14.1 6.1 5.5 56 4.1 N 37 43 20 23 1007.6 1007.9 0.0
01/12:30am 14.3 6.1 4.9 53 4.4 N 37 41 20 22 1007.9 1008.1 0.0
01/12:00am 13.6 6.8 5.3 57 3.9 N 30 33 16 18 1008.5 1008.8 0.0
 
Date/Time
EST
Temp
°C
App
Temp
°C
Dew
Point
Rel
Hum
%
Delta-T
°C
Wind Press
QNH
hPa
Press
MSL
hPa
Rain
since 9 am
mm
Dir
 
Spd
km/h
Gust
km/h
Spd
kts
Gust
kts
31/11:30pm 13.8 7.5 5.9 59 3.8 N 28 33 15 18 1008.9 1009.2 0.0
31/11:00pm 13.3 8.9 6.4 63 3.4 N 19 22 10 12 1009.3 1009.6 0.0
31/10:30pm 13.9 8.2 6.7 62 3.5 N 26 32 14 17 1009.7 1010.0 0.0
31/10:00pm 13.5 7.6 7.7 68 2.9 N 28 33 15 18 1009.8 1010.1 0.0
31/09:30pm 12.6 7.0 8.7 77 2.0 NNE 28 32 15 17 1009.8 1010.1 0.0
31/09:00pm 13.1 7.5 8.6 74 2.3 NNE 28 32 15 17 1010.3 1010.6 0.0
31/08:30pm 13.1 7.0 8.4 73 2.4 NE 30 35 16 19 1010.6 1010.9 0.0
31/08:00pm 13.4 8.0 8.0 70 2.7 NE 26 30 14 16 1011.3 1011.6 0.0
31/07:30pm 14.0 8.2 7.8 66 3.1 NNE 28 32 15 17 1011.5 1011.9 0.0
31/07:00pm 14.7 8.1 7.7 63 3.5 NNE 32 37 17 20 1011.6 1012.0 0.0
31/06:30pm 14.8 8.9 7.6 62 3.6 NNE 28 32 15 17 1011.9 1012.2 0.0
31/06:00pm 15.3 8.7 7.6 60 3.9 N 32 37 17 20 1011.9 1012.2 0.0
31/05:30pm 15.6 9.9 8.4 62 3.7 N 28 32 15 17 1011.9 1012.2 0.0
31/05:00pm 16.1 10.8 8.3 60 4.0 N 26 33 14 18 1012.1 1012.4 0.0
31/04:30pm 16.8 10.3 8.0 56 4.5 N 32 35 17 19 1012.1 1012.4 0.0
31/04:00pm 16.8 10.6 8.0 56 4.5 N 30 37 16 20 1012.2 1012.5 0.0
31/03:30pm 17.9 9.9 7.6 51 5.3 N 39 46 21 25 1012.3 1012.6 0.0
31/03:00pm 18.5 11.4 8.2 51 5.4 N 35 43 19 23 1012.5 1012.8 0.0
31/02:30pm 18.7 11.3 8.4 51 5.4 N 37 43 20 23 1012.9 1013.2 0.0
31/02:00pm 18.5 9.8 7.9 50 5.5 N 43 50 23 27 1013.0 1013.3 0.0
31/01:30pm 18.3 10.6 8.8 54 5.0 N 39 46 21 25 1013.4 1013.7 0.0
31/01:00pm 17.7 10.8 8.8 56 4.7 N 35 43 19 23 1014.0 1014.3 0.0
31/12:30pm 17.8 11.4 9.4 58 4.5 N 33 39 18 21 1014.7 1015.1 0.0
31/12:00pm 16.5 8.9 7.7 56 4.5 N 37 46 20 25 1015.0 1015.4 0.0
31/11:30am 16.1 8.2 7.8 58 4.2 N 39 44 21 24 1015.6 1016.0 0.0
31/11:28am 16.1 8.5 7.6 57 4.3 N 37 44 20 24 1015.6 1016.0 0.0
31/11:00am 16.9 12.8 8.6 58 4.3 N 20 24 11 13 1016.8 1017.1 0.0
31/10:30am 16.6 13.1 8.6 59 4.1 NW 17 22 9 12 1017.2 1017.5 0.0
31/10:00am 15.9 11.0 8.4 61 3.9 N 24 32 13 17 1017.2 1017.5 0.0
31/09:30am 13.9 10.7 8.3 69 2.8 N 15 20 8 11 1017.3 1017.6 0.0
31/09:00am 13.0 8.7 7.2 68 2.8 N 19 26 10 14 1017.2 1017.5 0.0
31/08:30am 12.2 8.2 6.5 68 2.7 N 17 22 9 12 1017.4 1017.7 0.0
31/08:00am 11.9 8.2 6.2 68 2.7 N 15 19 8 10 1017.6 1017.9 0.0
31/07:30am 11.3 7.6 6.2 71 2.4 N 15 19 8 10 1017.6 1017.9 0.0
31/07:00am 10.9 7.2 6.5 74 2.1 N 15 20 8 11 1017.7 1018.0 0.0
31/06:30am 10.9 6.9 6.5 74 2.1 N 17 22 9 12 1017.6 1017.9 0.0
31/06:00am 11.5 7.1 6.6 72 2.3 N 19 22 10 12 1017.6 1017.9 0.0
31/05:30am 11.0 7.0 6.7 75 2.1 N 17 20 9 11 1017.6 1017.9 0.0
31/05:00am 11.1 7.2 7.0 76 2.0 N 17 22 9 12 1017.6 1017.9 0.0
31/04:30am 11.4 6.5 7.1 75 2.1 N 22 26 12 14 1017.4 1017.7 0.0
31/04:00am 11.1 6.3 7.2 77 1.9 N 22 30 12 16 1017.5 1017.8 0.0
31/03:30am 11.2 6.4 7.3 77 1.9 N 22 28 12 15 1017.7 1018.0 0.0
31/03:00am 11.8 7.0 7.3 74 2.2 N 22 30 12 16 1018.0 1018.4 0.0
31/02:30am 11.5 7.0 7.0 74 2.2 N 20 26 11 14 1018.4 1018.8 0.0
31/02:00am 11.7 6.9 7.2 74 2.2 N 22 24 12 13 1018.7 1019.1 0.0
31/01:30am 11.5 7.2 7.0 74 2.2 N 19 22 10 12 1018.9 1019.3 0.0
31/01:00am 12.3 7.9 7.2 71 2.5 N 20 24 11 13 1019.0 1019.4 0.0
31/12:30am 12.0 7.8 7.3 73 2.3 N 19 22 10 12 1019.3 1019.7 0.0
31/12:00am 12.5 8.1 7.2 70 2.6 N 20 28 11 15 1019.6 1020.0 0.0
 
Date/Time
EST
Temp
°C
App
Temp
°C
Dew
Point
Rel
Hum
%
Delta-T
°C
Wind Press
QNH
hPa
Press
MSL
hPa
Rain
since 9 am
mm
Dir
 
Spd
km/h
Gust
km/h
Spd
kts
Gust
kts
30/11:30pm 12.2 8.0 7.3 72 2.4 N 19 24 10 13 1020.0 1020.3 0.0
30/11:00pm 12.6 7.4 7.3 70 2.6 N 24 28 13 15 1020.2 1020.5 0.0
30/10:30pm 12.4 7.2 7.3 71 2.5 N 24 30 13 16 1020.3 1020.6 0.0
30/10:00pm 12.7 8.0 7.8 72 2.4 N 22 26 12 14 1020.7 1021.0 0.0
30/09:30pm 13.1 8.5 8.0 71 2.6 N 22 26 12 14 1020.9 1021.2 0.0
30/09:00pm 13.3 9.1 8.4 72 2.5 N 20 22 11 12 1021.2 1021.6 0.0
30/08:30pm 14.0 9.5 8.4 69 2.8 N 22 26 12 14 1021.3 1021.7 0.0
30/08:00pm 13.3 9.2 8.8 74 2.3 N 20 22 11 12 1021.2 1021.6 0.0
30/07:30pm 14.3 11.3 9.3 72 2.6 N 15 17 8 9 1021.3 1021.7 0.0
30/07:00pm 14.9 12.2 9.1 68 3.0 N 13 15 7 8 1021.3 1021.7 0.0
30/06:30pm 15.1 12.5 9.5 69 2.9 N 13 15 7 8 1021.0 1021.3 0.0
30/06:00pm 15.3 12.8 9.7 69 2.9 N 13 15 7 8 1021.1 1021.4 0.0
30/05:30pm 16.0 13.6 10.1 68 3.1 N 13 15 7 8 1021.0 1021.3 0.0
30/05:00pm 16.7 14.4 10.3 66 3.4 N 13 17 7 9 1021.2 1021.6 0.0
30/04:30pm 17.3 14.6 10.2 63 3.8 NNW 15 19 8 10 1021.2 1021.6 0.0
30/04:00pm 17.5 14.4 10.4 63 3.8 NNW 17 20 9 11 1021.3 1021.7 0.0
30/03:30pm 17.3 13.8 10.2 63 3.8 NNW 19 22 10 12 1021.2 1021.6 0.0
30/03:00pm 17.4 13.7 10.1 62 3.9 NNW 20 26 11 14 1021.3 1021.7 0.0
30/02:30pm 17.6 13.9 10.2 62 4.0 NNW 20 26 11 14 1021.6 1022.0 0.0

Other Formats:

Comma delimited format used in spreadsheet applications
http://www.bom.gov.au/fwo/IDV60801/IDV60801.95845.axf

JavaScript Object Notation format (JSON) in row-major order
http://www.bom.gov.au/fwo/IDV60801/IDV60801.95845.json